Sto Camellia — D7LH — position and weather

sailwx.info

Track history (hours):
 
Tides and Currents Weather Stations Pressure Air Temp Water Temp Dewpoint Dewpoint Depression Visibility Wind Speed Wind Dir Waves Ship Positions

Sto Camellia

Last reported at 2017-Apr-21 16:36 UTC. Time now 2017-Apr-26 15:59 UTC.
Position N 31°24' E 121°32'.

Length 121 m; draft 8.7 m.

Type: Ship (hazmat cat C). MMSI: 440036000.

Date/timePositionNaut miles runAvg speedWind from/ knotsBaromVisibWave heightAir tempDewpointWater temp
2017-Apr-21 16:36N 31°24' E 121°32'6111.6
2017-Apr-21 11:20N 32°00' E 120°35'513.5
2017-Apr-21 11:00N 32°02' E 120°30'  
2017-Apr-19 05:56N 32°00' E 120°23'4 9.9
2017-Apr-19 05:31N 32°02' E 120°27'510.0
2017-Apr-19 05:00N 32°01' E 120°33'1 0.0
2017-Apr-17 05:12N 32°01' E 120°32'313.7
2017-Apr-17 05:00N 32°02' E 120°29'5 0.1
2017-Apr-15 04:58N 32°01' E 120°23'4 8.7
2017-Apr-15 04:29N 32°02' E 120°28'5 8.9
2017-Apr-15 03:58N 32°01' E 120°33'49 6.8
2017-Apr-14 20:51N 31°34' E 121°21'0 0.1
2017-Apr-14 20:30N 31°34' E 121°21'0 0.0
2017-Apr-14 19:57N 31°34' E 121°21'0 0.0
2017-Apr-14 19:30N 31°34' E 121°21'0 0.0
2017-Apr-14 19:00N 31°34' E 121°21'0 0.0
2017-Apr-14 18:24N 31°34' E 121°21'0 0.0
2017-Apr-14 18:00N 31°34' E 121°21'0 0.0
2017-Apr-14 17:27N 31°34' E 121°21'0 0.0
2017-Apr-14 16:57N 31°34' E 121°21'0 0.1
2017-Apr-14 16:30N 31°34' E 121°21'0 0.2
2017-Apr-14 15:51N 31°34' E 121°21'0 0.1
2017-Apr-14 15:27N 31°34' E 121°21'0 0.4
2017-Apr-14 14:57N 31°34' E 121°21'0 0.0
2017-Apr-14 14:30N 31°34' E 121°21'0 0.1
2017-Apr-14 13:29N 31°34' E 121°21'0 0.0
2017-Apr-14 12:57N 31°34' E 121°21'0 0.0
2017-Apr-14 12:30N 31°34' E 121°21'0 0.1
2017-Apr-14 12:00N 31°34' E 121°21'0 0.2
2017-Apr-14 11:30N 31°34' E 121°21'2 4.5
2017-Apr-14 11:00N 31°32' E 121°22'5 9.7
2017-Apr-14 10:30N 31°29' E 121°27'4 8.4
2017-Apr-14 10:00N 31°26' E 121°30'3 4.9
2017-Apr-14 09:27N 31°25' E 121°32'3 6.5
2017-Apr-14 09:00N 31°23' E 121°35'5 9.3
2017-Apr-14 08:26N 31°20' E 121°41'55 3.7
2017-Apr-13 17:22N 31°10' E 122°44'0 0.1
2017-Apr-13 12:16N 31°10' E 122°44'0 0.2
2017-Apr-13 11:58N 31°10' E 122°44'0 0.1
2017-Apr-13 11:28N 31°10' E 122°44'0 0.1
2017-Apr-13 10:58N 31°10' E 122°44'1 1.0
2017-Apr-13 10:29N 31°10' E 122°45'3 6.2
2017-Apr-13 09:58N 31°11' E 122°48'510.6
2017-Apr-13 09:31N 31°15' E 122°51'812.7
2017-Apr-13 08:54N 31°22' E 122°55'512.6
2017-Apr-13 08:30N 31°27' E 122°57'612.4
2017-Apr-13 08:00N 31°33' E 122°60'612.3
2017-Apr-13 07:30N 31°38' E 123°02'611.9
2017-Apr-13 07:00N 31°44' E 123°05'611.4
2017-Apr-13 06:31N 31°49' E 123°08'611.3
2017-Apr-13 06:00N 31°54' E 123°10'611.1
2017-Apr-13 05:30N 31°59' E 123°13'511.1
2017-Apr-13 05:00N 32°04' E 123°15'611.1
2017-Apr-13 04:30N 32°10' E 123°18'511.0
2017-Apr-13 04:00N 32°15' E 123°20'  
Track history (hours):
 
Tides and Currents Weather Stations Pressure Air Temp Water Temp Dewpoint Dewpoint Depression Visibility Wind Speed Wind Dir Waves Ship Positions

Sto Camellia

Last reported at 2017-Apr-21 16:36 UTC. Time now 2017-Apr-26 15:59 UTC.
Position N 31°24' E 121°32'.

Length 121 m; draft 8.7 m.

Type: Ship (hazmat cat C). MMSI: 440036000.

Date/timePositionNaut miles runAvg speedWind from/ knotsBaromVisibWave heightAir tempDewpointWater temp
2017-Apr-21 16:36N 31°24' E 121°32'6111.6
2017-Apr-21 11:20N 32°00' E 120°35'513.5
2017-Apr-21 11:00N 32°02' E 120°30'  
2017-Apr-19 05:56N 32°00' E 120°23'4 9.9
2017-Apr-19 05:31N 32°02' E 120°27'510.0
2017-Apr-19 05:00N 32°01' E 120°33'1 0.0
2017-Apr-17 05:12N 32°01' E 120°32'313.7
2017-Apr-17 05:00N 32°02' E 120°29'5 0.1
2017-Apr-15 04:58N 32°01' E 120°23'4 8.7
2017-Apr-15 04:29N 32°02' E 120°28'5 8.9
2017-Apr-15 03:58N 32°01' E 120°33'49 6.8
2017-Apr-14 20:51N 31°34' E 121°21'0 0.1
2017-Apr-14 20:30N 31°34' E 121°21'0 0.0
2017-Apr-14 19:57N 31°34' E 121°21'0 0.0
2017-Apr-14 19:30N 31°34' E 121°21'0 0.0
2017-Apr-14 19:00N 31°34' E 121°21'0 0.0
2017-Apr-14 18:24N 31°34' E 121°21'0 0.0
2017-Apr-14 18:00N 31°34' E 121°21'0 0.0
2017-Apr-14 17:27N 31°34' E 121°21'0 0.0
2017-Apr-14 16:57N 31°34' E 121°21'0 0.1
2017-Apr-14 16:30N 31°34' E 121°21'0 0.2
2017-Apr-14 15:51N 31°34' E 121°21'0 0.1
2017-Apr-14 15:27N 31°34' E 121°21'0 0.4
2017-Apr-14 14:57N 31°34' E 121°21'0 0.0
2017-Apr-14 14:30N 31°34' E 121°21'0 0.1
2017-Apr-14 13:29N 31°34' E 121°21'0 0.0
2017-Apr-14 12:57N 31°34' E 121°21'0 0.0
2017-Apr-14 12:30N 31°34' E 121°21'0 0.1
2017-Apr-14 12:00N 31°34' E 121°21'0 0.2
2017-Apr-14 11:30N 31°34' E 121°21'2 4.5
2017-Apr-14 11:00N 31°32' E 121°22'5 9.7
2017-Apr-14 10:30N 31°29' E 121°27'4 8.4
2017-Apr-14 10:00N 31°26' E 121°30'3 4.9
2017-Apr-14 09:27N 31°25' E 121°32'3 6.5
2017-Apr-14 09:00N 31°23' E 121°35'5 9.3
2017-Apr-14 08:26N 31°20' E 121°41'55 3.7
2017-Apr-13 17:22N 31°10' E 122°44'0 0.1
2017-Apr-13 12:16N 31°10' E 122°44'0 0.2
2017-Apr-13 11:58N 31°10' E 122°44'0 0.1
2017-Apr-13 11:28N 31°10' E 122°44'0 0.1
2017-Apr-13 10:58N 31°10' E 122°44'1 1.0
2017-Apr-13 10:29N 31°10' E 122°45'3 6.2
2017-Apr-13 09:58N 31°11' E 122°48'510.6
2017-Apr-13 09:31N 31°15' E 122°51'812.7
2017-Apr-13 08:54N 31°22' E 122°55'512.6
2017-Apr-13 08:30N 31°27' E 122°57'612.4
2017-Apr-13 08:00N 31°33' E 122°60'612.3
2017-Apr-13 07:30N 31°38' E 123°02'611.9
2017-Apr-13 07:00N 31°44' E 123°05'611.4
2017-Apr-13 06:31N 31°49' E 123°08'611.3
2017-Apr-13 06:00N 31°54' E 123°10'611.1
2017-Apr-13 05:30N 31°59' E 123°13'511.1
2017-Apr-13 05:00N 32°04' E 123°15'611.1
2017-Apr-13 04:30N 32°10' E 123°18'511.0
2017-Apr-13 04:00N 32°15' E 123°20'  

Dump ship's entire track history